Pays
Station

 

Conditions  météo  pour  Rosario Aerodrome  -  Argentine    Argentine

  
12 °C
    
 
 

METAR pour Rosario Aerodrome :

SAAR 200100Z 00000KT CAVOK 12/09 Q1016

 

Voici le bulletin pour Rosario Aerodrome - Argentine.
 
Le bulletin a été fait il y a 59 minutes, à 01:00 UTC .
Le vent était calme.
 
La température était de 12 °C, avec un point de rosée à 9 °C.
La pression atmosphérique était de 1016 hPa.
L'humidité relative était de 81.9%.
 
Il y avait pas de nuages en-dessous de 1500 mètres et pas de cumulonimbus.
 
La visibilité globale était de supérieure à 10 kilomètres.
 

 
 
 

Pays :   A   B   C   D   E   F   G   H   I   J   K   L   M   N   O   P   Q   R   S   T   U   V   W   Y   Z

 

Partenaires :  Info Météo avec Met'info
Météo Marine avec MeteoMarine.net
Infos Site  |  Infos Légales  |  Crédits  |  Confidentialité
Contactez-nous  |  Ajouter aux favoris
© 2013-2018 METAR - Tous droits réservés